sensor_id;sensor_type;location;lat;lon;timestamp;P1;durP1;ratioP1;P2;durP2;ratioP2
4638;SDS011;2332;38.646;-9.154;2022-12-18T00:00:41;14.13;;;7.70;;
4638;SDS011;2332;38.646;-9.154;2022-12-18T00:03:07;21.67;;;7.17;;
4638;SDS011;2332;38.646;-9.154;2022-12-18T00:05:32;15.03;;;6.50;;
4638;SDS011;2332;38.646;-9.154;2022-12-18T00:07:58;14.30;;;6.13;;
4638;SDS011;2332;38.646;-9.154;2022-12-18T00:10:23;11.20;;;5.07;;
4638;SDS011;2332;38.646;-9.154;2022-12-18T00:12:48;11.47;;;6.53;;
4638;SDS011;2332;38.646;-9.154;2022-12-18T00:15:14;14.70;;;6.10;;
4638;SDS011;2332;38.646;-9.154;2022-12-18T00:17:39;14.20;;;5.50;;
4638;SDS011;2332;38.646;-9.154;2022-12-18T00:20:05;11.93;;;4.80;;
4638;SDS011;2332;38.646;-9.154;2022-12-18T00:22:30;13.70;;;4.93;;
4638;SDS011;2332;38.646;-9.154;2022-12-18T00:24:55;16.67;;;5.40;;
4638;SDS011;2332;38.646;-9.154;2022-12-18T00:27:21;12.13;;;4.60;;
4638;SDS011;2332;38.646;-9.154;2022-12-18T00:29:47;9.83;;;4.53;;
4638;SDS011;2332;38.646;-9.154;2022-12-18T00:32:12;11.60;;;5.20;;
4638;SDS011;2332;38.646;-9.154;2022-12-18T00:34:38;14.00;;;5.50;;
4638;SDS011;2332;38.646;-9.154;2022-12-18T00:37:03;15.37;;;5.30;;
4638;SDS011;2332;38.646;-9.154;2022-12-18T00:39:28;10.40;;;4.87;;
4638;SDS011;2332;38.646;-9.154;2022-12-18T00:41:54;12.17;;;4.77;;
4638;SDS011;2332;38.646;-9.154;2022-12-18T00:44:38;12.70;;;5.47;;
4638;SDS011;2332;38.646;-9.154;2022-12-18T00:47:03;14.23;;;5.83;;
4638;SDS011;2332;38.646;-9.154;2022-12-18T00:49:28;12.10;;;5.13;;
4638;SDS011;2332;38.646;-9.154;2022-12-18T00:51:54;13.27;;;5.23;;
4638;SDS011;2332;38.646;-9.154;2022-12-18T00:54:19;13.57;;;5.23;;
4638;SDS011;2332;38.646;-9.154;2022-12-18T00:56:45;9.13;;;5.80;;
4638;SDS011;2332;38.646;-9.154;2022-12-18T00:59:10;16.70;;;7.63;;
4638;SDS011;2332;38.646;-9.154;2022-12-18T01:01:35;17.93;;;6.20;;
4638;SDS011;2332;38.646;-9.154;2022-12-18T01:04:01;11.53;;;4.10;;
4638;SDS011;2332;38.646;-9.154;2022-12-18T01:06:27;13.80;;;4.97;;
4638;SDS011;2332;38.646;-9.154;2022-12-18T01:08:52;14.37;;;4.90;;
4638;SDS011;2332;38.646;-9.154;2022-12-18T01:11:18;19.83;;;4.77;;
4638;SDS011;2332;38.646;-9.154;2022-12-18T01:13:44;8.30;;;4.43;;
4638;SDS011;2332;38.646;-9.154;2022-12-18T01:16:13;13.13;;;4.53;;
4638;SDS011;2332;38.646;-9.154;2022-12-18T01:18:39;15.23;;;4.97;;
4638;SDS011;2332;38.646;-9.154;2022-12-18T01:21:07;14.60;;;4.87;;
4638;SDS011;2332;38.646;-9.154;2022-12-18T01:23:33;15.43;;;5.00;;
4638;SDS011;2332;38.646;-9.154;2022-12-18T01:26:03;14.20;;;4.50;;
4638;SDS011;2332;38.646;-9.154;2022-12-18T01:28:28;18.07;;;4.80;;
4638;SDS011;2332;38.646;-9.154;2022-12-18T01:30:53;7.37;;;4.07;;
4638;SDS011;2332;38.646;-9.154;2022-12-18T01:33:19;12.90;;;5.40;;
4638;SDS011;2332;38.646;-9.154;2022-12-18T01:35:44;29.27;;;7.57;;
4638;SDS011;2332;38.646;-9.154;2022-12-18T01:38:12;19.80;;;7.17;;
4638;SDS011;2332;38.646;-9.154;2022-12-18T01:40:38;20.10;;;6.40;;
4638;SDS011;2332;38.646;-9.154;2022-12-18T01:43:03;12.50;;;5.63;;
4638;SDS011;2332;38.646;-9.154;2022-12-18T01:45:29;12.30;;;5.67;;
4638;SDS011;2332;38.646;-9.154;2022-12-18T01:50:24;25.57;;;13.40;;
4638;SDS011;2332;38.646;-9.154;2022-12-18T01:52:57;26.63;;;10.80;;
4638;SDS011;2332;38.646;-9.154;2022-12-18T01:55:23;16.90;;;7.17;;
4638;SDS011;2332;38.646;-9.154;2022-12-18T01:57:51;18.73;;;7.80;;
4638;SDS011;2332;38.646;-9.154;2022-12-18T02:00:18;21.77;;;7.10;;
4638;SDS011;2332;38.646;-9.154;2022-12-18T02:02:47;15.20;;;7.53;;
4638;SDS011;2332;38.646;-9.154;2022-12-18T02:05:15;15.90;;;6.50;;
4638;SDS011;2332;38.646;-9.154;2022-12-18T02:10:10;13.10;;;6.37;;
4638;SDS011;2332;38.646;-9.154;2022-12-18T02:13:41;14.77;;;5.93;;
4638;SDS011;2332;38.646;-9.154;2022-12-18T02:18:21;16.23;;;5.80;;
4638;SDS011;2332;38.646;-9.154;2022-12-18T02:20:48;14.67;;;6.10;;
4638;SDS011;2332;38.646;-9.154;2022-12-18T02:23:24;18.27;;;5.70;;
4638;SDS011;2332;38.646;-9.154;2022-12-18T02:28:25;17.57;;;5.53;;
4638;SDS011;2332;38.646;-9.154;2022-12-18T02:30:51;16.50;;;6.50;;
4638;SDS011;2332;38.646;-9.154;2022-12-18T02:33:18;12.03;;;5.60;;
4638;SDS011;2332;38.646;-9.154;2022-12-18T02:35:44;12.17;;;5.97;;
4638;SDS011;2332;38.646;-9.154;2022-12-18T02:38:10;15.87;;;7.00;;
4638;SDS011;2332;38.646;-9.154;2022-12-18T02:40:36;18.63;;;7.03;;
4638;SDS011;2332;38.646;-9.154;2022-12-18T02:43:13;13.27;;;6.60;;
4638;SDS011;2332;38.646;-9.154;2022-12-18T02:45:55;13.07;;;6.47;;
4638;SDS011;2332;38.646;-9.154;2022-12-18T02:48:24;14.27;;;6.10;;
4638;SDS011;2332;38.646;-9.154;2022-12-18T02:50:54;15.40;;;6.67;;
4638;SDS011;2332;38.646;-9.154;2022-12-18T02:55:53;18.60;;;8.07;;
4638;SDS011;2332;38.646;-9.154;2022-12-18T02:59:06;12.93;;;6.07;;
4638;SDS011;2332;38.646;-9.154;2022-12-18T03:03:36;17.10;;;7.10;;
4638;SDS011;2332;38.646;-9.154;2022-12-18T03:06:08;14.07;;;6.97;;
4638;SDS011;2332;38.646;-9.154;2022-12-18T03:08:39;19.37;;;7.70;;
4638;SDS011;2332;38.646;-9.154;2022-12-18T03:11:10;18.57;;;9.03;;
4638;SDS011;2332;38.646;-9.154;2022-12-18T03:13:37;24.73;;;8.07;;
4638;SDS011;2332;38.646;-9.154;2022-12-18T03:16:05;19.50;;;8.83;;
4638;SDS011;2332;38.646;-9.154;2022-12-18T03:18:35;20.37;;;9.33;;
4638;SDS011;2332;38.646;-9.154;2022-12-18T03:21:02;14.50;;;9.13;;
4638;SDS011;2332;38.646;-9.154;2022-12-18T03:23:31;24.40;;;10.07;;
4638;SDS011;2332;38.646;-9.154;2022-12-18T03:25:59;17.97;;;8.70;;
4638;SDS011;2332;38.646;-9.154;2022-12-18T03:28:28;21.13;;;8.67;;
4638;SDS011;2332;38.646;-9.154;2022-12-18T03:30:56;21.53;;;9.70;;
4638;SDS011;2332;38.646;-9.154;2022-12-18T03:33:26;20.43;;;10.77;;
4638;SDS011;2332;38.646;-9.154;2022-12-18T03:35:52;24.63;;;10.60;;
4638;SDS011;2332;38.646;-9.154;2022-12-18T03:38:20;22.13;;;9.87;;
4638;SDS011;2332;38.646;-9.154;2022-12-18T03:40:58;16.20;;;9.50;;
4638;SDS011;2332;38.646;-9.154;2022-12-18T03:46:02;19.53;;;7.30;;
4638;SDS011;2332;38.646;-9.154;2022-12-18T03:48:48;16.00;;;8.60;;
4638;SDS011;2332;38.646;-9.154;2022-12-18T03:51:18;22.67;;;8.13;;
4638;SDS011;2332;38.646;-9.154;2022-12-18T03:53:53;11.40;;;8.10;;
4638;SDS011;2332;38.646;-9.154;2022-12-18T03:56:20;17.07;;;7.60;;
4638;SDS011;2332;38.646;-9.154;2022-12-18T03:58:47;19.27;;;10.07;;
4638;SDS011;2332;38.646;-9.154;2022-12-18T04:01:14;20.60;;;10.70;;
4638;SDS011;2332;38.646;-9.154;2022-12-18T04:03:40;20.27;;;8.43;;
4638;SDS011;2332;38.646;-9.154;2022-12-18T04:06:06;18.03;;;8.43;;
4638;SDS011;2332;38.646;-9.154;2022-12-18T04:08:32;18.13;;;8.47;;
4638;SDS011;2332;38.646;-9.154;2022-12-18T04:10:59;13.63;;;7.80;;
4638;SDS011;2332;38.646;-9.154;2022-12-18T04:13:28;19.13;;;7.47;;
4638;SDS011;2332;38.646;-9.154;2022-12-18T04:15:54;18.77;;;7.50;;
4638;SDS011;2332;38.646;-9.154;2022-12-18T04:18:19;15.90;;;6.90;;
4638;SDS011;2332;38.646;-9.154;2022-12-18T04:20:45;19.80;;;7.70;;
4638;SDS011;2332;38.646;-9.154;2022-12-18T04:23:11;17.83;;;7.07;;
4638;SDS011;2332;38.646;-9.154;2022-12-18T04:25:36;23.00;;;6.90;;
4638;SDS011;2332;38.646;-9.154;2022-12-18T04:28:01;16.13;;;8.20;;
4638;SDS011;2332;38.646;-9.154;2022-12-18T04:30:27;16.73;;;7.33;;
4638;SDS011;2332;38.646;-9.154;2022-12-18T04:32:52;16.67;;;6.83;;
4638;SDS011;2332;38.646;-9.154;2022-12-18T04:35:17;10.13;;;7.10;;
4638;SDS011;2332;38.646;-9.154;2022-12-18T04:37:43;13.30;;;7.80;;
4638;SDS011;2332;38.646;-9.154;2022-12-18T04:40:08;18.80;;;7.27;;
4638;SDS011;2332;38.646;-9.154;2022-12-18T04:42:34;13.83;;;6.07;;
4638;SDS011;2332;38.646;-9.154;2022-12-18T04:44:59;20.27;;;6.30;;
4638;SDS011;2332;38.646;-9.154;2022-12-18T04:47:25;13.83;;;7.23;;
4638;SDS011;2332;38.646;-9.154;2022-12-18T04:49:50;20.67;;;7.23;;
4638;SDS011;2332;38.646;-9.154;2022-12-18T04:52:15;13.97;;;7.17;;
4638;SDS011;2332;38.646;-9.154;2022-12-18T04:54:41;15.30;;;7.33;;
4638;SDS011;2332;38.646;-9.154;2022-12-18T04:57:06;19.03;;;7.43;;
4638;SDS011;2332;38.646;-9.154;2022-12-18T04:59:31;11.53;;;6.60;;
4638;SDS011;2332;38.646;-9.154;2022-12-18T05:01:57;16.70;;;6.80;;
4638;SDS011;2332;38.646;-9.154;2022-12-18T05:04:22;17.30;;;7.73;;
4638;SDS011;2332;38.646;-9.154;2022-12-18T05:06:47;15.57;;;6.63;;
4638;SDS011;2332;38.646;-9.154;2022-12-18T05:09:13;19.97;;;7.93;;
4638;SDS011;2332;38.646;-9.154;2022-12-18T05:11:38;16.77;;;6.97;;
4638;SDS011;2332;38.646;-9.154;2022-12-18T05:14:03;17.67;;;6.57;;
4638;SDS011;2332;38.646;-9.154;2022-12-18T05:16:29;12.43;;;6.90;;
4638;SDS011;2332;38.646;-9.154;2022-12-18T05:18:54;16.03;;;6.67;;
4638;SDS011;2332;38.646;-9.154;2022-12-18T05:21:20;17.67;;;5.97;;
4638;SDS011;2332;38.646;-9.154;2022-12-18T05:23:45;24.40;;;6.37;;
4638;SDS011;2332;38.646;-9.154;2022-12-18T05:26:13;18.93;;;7.27;;
4638;SDS011;2332;38.646;-9.154;2022-12-18T05:28:39;15.07;;;6.10;;
4638;SDS011;2332;38.646;-9.154;2022-12-18T05:31:04;11.40;;;6.47;;
4638;SDS011;2332;38.646;-9.154;2022-12-18T05:33:31;16.93;;;6.13;;
4638;SDS011;2332;38.646;-9.154;2022-12-18T05:35:58;16.13;;;6.83;;
4638;SDS011;2332;38.646;-9.154;2022-12-18T05:38:24;16.87;;;6.07;;
4638;SDS011;2332;38.646;-9.154;2022-12-18T05:40:50;15.37;;;5.90;;
4638;SDS011;2332;38.646;-9.154;2022-12-18T05:43:16;15.80;;;6.23;;
4638;SDS011;2332;38.646;-9.154;2022-12-18T05:45:41;16.20;;;6.10;;
4638;SDS011;2332;38.646;-9.154;2022-12-18T05:48:07;12.07;;;5.63;;
4638;SDS011;2332;38.646;-9.154;2022-12-18T05:50:36;10.30;;;5.70;;
4638;SDS011;2332;38.646;-9.154;2022-12-18T05:53:02;12.33;;;5.80;;
4638;SDS011;2332;38.646;-9.154;2022-12-18T05:55:28;14.73;;;5.60;;
4638;SDS011;2332;38.646;-9.154;2022-12-18T05:57:53;13.57;;;5.57;;
4638;SDS011;2332;38.646;-9.154;2022-12-18T06:00:19;12.53;;;5.60;;
4638;SDS011;2332;38.646;-9.154;2022-12-18T06:02:47;12.27;;;4.70;;
4638;SDS011;2332;38.646;-9.154;2022-12-18T06:05:12;13.30;;;5.07;;
4638;SDS011;2332;38.646;-9.154;2022-12-18T06:07:38;11.40;;;4.70;;
4638;SDS011;2332;38.646;-9.154;2022-12-18T06:10:03;19.50;;;5.70;;
4638;SDS011;2332;38.646;-9.154;2022-12-18T06:12:29;13.73;;;5.63;;
4638;SDS011;2332;38.646;-9.154;2022-12-18T06:14:54;17.53;;;5.10;;
4638;SDS011;2332;38.646;-9.154;2022-12-18T06:17:19;15.30;;;4.93;;
4638;SDS011;2332;38.646;-9.154;2022-12-18T06:19:45;11.40;;;4.80;;
4638;SDS011;2332;38.646;-9.154;2022-12-18T06:22:10;8.53;;;4.27;;
4638;SDS011;2332;38.646;-9.154;2022-12-18T06:24:36;9.73;;;4.83;;
4638;SDS011;2332;38.646;-9.154;2022-12-18T06:27:01;15.63;;;4.80;;
4638;SDS011;2332;38.646;-9.154;2022-12-18T06:29:27;12.60;;;4.67;;
4638;SDS011;2332;38.646;-9.154;2022-12-18T06:31:52;11.50;;;4.40;;
4638;SDS011;2332;38.646;-9.154;2022-12-18T06:34:19;9.10;;;3.83;;
4638;SDS011;2332;38.646;-9.154;2022-12-18T06:36:45;11.37;;;3.97;;
4638;SDS011;2332;38.646;-9.154;2022-12-18T06:39:10;14.13;;;4.77;;
4638;SDS011;2332;38.646;-9.154;2022-12-18T06:41:36;14.90;;;5.10;;
4638;SDS011;2332;38.646;-9.154;2022-12-18T06:44:01;12.73;;;4.50;;
4638;SDS011;2332;38.646;-9.154;2022-12-18T06:46:26;11.20;;;3.80;;
4638;SDS011;2332;38.646;-9.154;2022-12-18T06:48:52;15.30;;;4.83;;
4638;SDS011;2332;38.646;-9.154;2022-12-18T06:51:21;17.33;;;4.30;;
4638;SDS011;2332;38.646;-9.154;2022-12-18T06:53:50;11.83;;;4.53;;
4638;SDS011;2332;38.646;-9.154;2022-12-18T06:56:15;15.63;;;5.00;;
4638;SDS011;2332;38.646;-9.154;2022-12-18T06:58:40;10.13;;;4.00;;
4638;SDS011;2332;38.646;-9.154;2022-12-18T07:01:07;15.53;;;4.37;;
4638;SDS011;2332;38.646;-9.154;2022-12-18T07:03:33;13.00;;;4.33;;
4638;SDS011;2332;38.646;-9.154;2022-12-18T07:05:59;6.50;;;3.80;;
4638;SDS011;2332;38.646;-9.154;2022-12-18T07:08:24;11.77;;;5.20;;
4638;SDS011;2332;38.646;-9.154;2022-12-18T07:10:49;9.77;;;4.23;;
4638;SDS011;2332;38.646;-9.154;2022-12-18T07:13:15;7.77;;;3.70;;
4638;SDS011;2332;38.646;-9.154;2022-12-18T07:15:40;6.80;;;3.80;;
4638;SDS011;2332;38.646;-9.154;2022-12-18T07:18:06;13.73;;;4.73;;
4638;SDS011;2332;38.646;-9.154;2022-12-18T07:20:31;17.43;;;4.20;;
4638;SDS011;2332;38.646;-9.154;2022-12-18T07:22:57;13.13;;;4.27;;
4638;SDS011;2332;38.646;-9.154;2022-12-18T07:25:22;9.60;;;4.43;;
4638;SDS011;2332;38.646;-9.154;2022-12-18T07:27:48;13.73;;;4.67;;
4638;SDS011;2332;38.646;-9.154;2022-12-18T07:30:13;9.93;;;3.90;;
4638;SDS011;2332;38.646;-9.154;2022-12-18T07:32:38;4.47;;;3.67;;
4638;SDS011;2332;38.646;-9.154;2022-12-18T07:35:04;9.20;;;4.27;;
4638;SDS011;2332;38.646;-9.154;2022-12-18T07:37:29;13.17;;;4.27;;
4638;SDS011;2332;38.646;-9.154;2022-12-18T07:39:55;10.00;;;4.33;;
4638;SDS011;2332;38.646;-9.154;2022-12-18T07:42:20;12.53;;;4.50;;
4638;SDS011;2332;38.646;-9.154;2022-12-18T07:44:58;17.30;;;4.33;;
4638;SDS011;2332;38.646;-9.154;2022-12-18T07:47:23;10.03;;;3.83;;
4638;SDS011;2332;38.646;-9.154;2022-12-18T07:49:49;11.10;;;3.37;;
4638;SDS011;2332;38.646;-9.154;2022-12-18T07:52:14;11.77;;;4.27;;
4638;SDS011;2332;38.646;-9.154;2022-12-18T07:54:40;12.93;;;4.10;;
4638;SDS011;2332;38.646;-9.154;2022-12-18T07:57:06;6.37;;;3.83;;
4638;SDS011;2332;38.646;-9.154;2022-12-18T07:59:31;12.60;;;4.10;;
4638;SDS011;2332;38.646;-9.154;2022-12-18T08:01:56;9.27;;;4.10;;
4638;SDS011;2332;38.646;-9.154;2022-12-18T08:04:22;14.83;;;5.13;;
4638;SDS011;2332;38.646;-9.154;2022-12-18T08:06:47;10.30;;;4.33;;
4638;SDS011;2332;38.646;-9.154;2022-12-18T08:09:12;14.83;;;4.33;;
4638;SDS011;2332;38.646;-9.154;2022-12-18T08:11:38;13.00;;;4.87;;
4638;SDS011;2332;38.646;-9.154;2022-12-18T08:14:03;7.87;;;4.27;;
4638;SDS011;2332;38.646;-9.154;2022-12-18T08:16:28;14.03;;;4.70;;
4638;SDS011;2332;38.646;-9.154;2022-12-18T08:18:55;8.20;;;4.70;;
4638;SDS011;2332;38.646;-9.154;2022-12-18T08:21:25;19.40;;;5.27;;
4638;SDS011;2332;38.646;-9.154;2022-12-18T08:23:51;10.30;;;5.03;;
4638;SDS011;2332;38.646;-9.154;2022-12-18T08:26:17;12.43;;;5.37;;
4638;SDS011;2332;38.646;-9.154;2022-12-18T08:28:42;17.80;;;5.50;;
4638;SDS011;2332;38.646;-9.154;2022-12-18T08:31:08;13.43;;;5.20;;
4638;SDS011;2332;38.646;-9.154;2022-12-18T08:33:34;7.70;;;4.97;;
4638;SDS011;2332;38.646;-9.154;2022-12-18T08:35:59;6.33;;;5.20;;
4638;SDS011;2332;38.646;-9.154;2022-12-18T08:38:25;17.53;;;5.93;;
4638;SDS011;2332;38.646;-9.154;2022-12-18T08:40:57;14.03;;;5.83;;
4638;SDS011;2332;38.646;-9.154;2022-12-18T08:43:23;10.20;;;5.17;;
4638;SDS011;2332;38.646;-9.154;2022-12-18T08:46:07;9.70;;;5.10;;
4638;SDS011;2332;38.646;-9.154;2022-12-18T08:48:32;18.47;;;7.73;;
4638;SDS011;2332;38.646;-9.154;2022-12-18T08:50:58;9.13;;;6.23;;
4638;SDS011;2332;38.646;-9.154;2022-12-18T08:53:24;10.80;;;5.83;;
4638;SDS011;2332;38.646;-9.154;2022-12-18T08:55:49;19.37;;;8.40;;
4638;SDS011;2332;38.646;-9.154;2022-12-18T08:58:14;10.13;;;5.87;;
4638;SDS011;2332;38.646;-9.154;2022-12-18T09:00:40;9.07;;;5.67;;
4638;SDS011;2332;38.646;-9.154;2022-12-18T09:03:05;11.93;;;5.30;;
4638;SDS011;2332;38.646;-9.154;2022-12-18T09:05:35;12.30;;;6.20;;
4638;SDS011;2332;38.646;-9.154;2022-12-18T09:08:00;18.10;;;6.23;;
4638;SDS011;2332;38.646;-9.154;2022-12-18T09:10:26;15.07;;;6.40;;
4638;SDS011;2332;38.646;-9.154;2022-12-18T09:12:51;10.30;;;5.97;;
4638;SDS011;2332;38.646;-9.154;2022-12-18T09:15:16;16.43;;;6.60;;
4638;SDS011;2332;38.646;-9.154;2022-12-18T09:17:41;11.07;;;5.90;;
4638;SDS011;2332;38.646;-9.154;2022-12-18T09:20:07;9.37;;;6.00;;
4638;SDS011;2332;38.646;-9.154;2022-12-18T09:22:32;14.07;;;6.50;;
4638;SDS011;2332;38.646;-9.154;2022-12-18T09:24:58;8.60;;;5.90;;
4638;SDS011;2332;38.646;-9.154;2022-12-18T09:27:23;18.63;;;6.40;;
4638;SDS011;2332;38.646;-9.154;2022-12-18T09:29:48;14.20;;;6.50;;
4638;SDS011;2332;38.646;-9.154;2022-12-18T09:32:14;12.40;;;5.07;;
4638;SDS011;2332;38.646;-9.154;2022-12-18T09:34:39;9.60;;;6.00;;
4638;SDS011;2332;38.646;-9.154;2022-12-18T09:37:04;6.73;;;5.10;;
4638;SDS011;2332;38.646;-9.154;2022-12-18T09:39:30;11.30;;;5.23;;
4638;SDS011;2332;38.646;-9.154;2022-12-18T09:41:56;16.73;;;6.33;;
4638;SDS011;2332;38.646;-9.154;2022-12-18T09:49:19;13.43;;;6.90;;
4638;SDS011;2332;38.646;-9.154;2022-12-18T09:51:51;11.30;;;5.30;;
4638;SDS011;2332;38.646;-9.154;2022-12-18T09:54:37;12.67;;;5.93;;
4638;SDS011;2332;38.646;-9.154;2022-12-18T09:57:03;12.30;;;6.20;;
4638;SDS011;2332;38.646;-9.154;2022-12-18T09:59:36;9.80;;;6.17;;
4638;SDS011;2332;38.646;-9.154;2022-12-18T10:02:18;19.30;;;5.70;;
4638;SDS011;2332;38.646;-9.154;2022-12-18T10:04:44;11.53;;;5.30;;
4638;SDS011;2332;38.646;-9.154;2022-12-18T10:07:24;11.53;;;6.03;;
4638;SDS011;2332;38.646;-9.154;2022-12-18T10:09:58;20.57;;;5.80;;
4638;SDS011;2332;38.646;-9.154;2022-12-18T10:17:50;9.47;;;5.33;;
4638;SDS011;2332;38.646;-9.154;2022-12-18T10:22:44;11.17;;;6.00;;
4638;SDS011;2332;38.646;-9.154;2022-12-18T10:27:40;9.20;;;4.70;;
4638;SDS011;2332;38.646;-9.154;2022-12-18T10:30:12;13.73;;;5.47;;
4638;SDS011;2332;38.646;-9.154;2022-12-18T10:32:38;9.20;;;5.63;;
4638;SDS011;2332;38.646;-9.154;2022-12-18T10:35:03;12.70;;;5.60;;
4638;SDS011;2332;38.646;-9.154;2022-12-18T10:37:29;6.93;;;5.30;;
4638;SDS011;2332;38.646;-9.154;2022-12-18T10:42:36;10.93;;;4.10;;
4638;SDS011;2332;38.646;-9.154;2022-12-18T10:45:12;9.40;;;4.27;;
4638;SDS011;2332;38.646;-9.154;2022-12-18T10:47:41;12.40;;;4.30;;
4638;SDS011;2332;38.646;-9.154;2022-12-18T10:50:11;10.90;;;4.30;;
4638;SDS011;2332;38.646;-9.154;2022-12-18T10:52:43;11.40;;;4.17;;
4638;SDS011;2332;38.646;-9.154;2022-12-18T10:55:13;8.50;;;3.80;;
4638;SDS011;2332;38.646;-9.154;2022-12-18T10:57:41;14.90;;;4.40;;
4638;SDS011;2332;38.646;-9.154;2022-12-18T11:00:26;9.30;;;5.03;;
4638;SDS011;2332;38.646;-9.154;2022-12-18T11:02:52;9.70;;;4.30;;
4638;SDS011;2332;38.646;-9.154;2022-12-18T11:05:25;12.47;;;4.60;;
4638;SDS011;2332;38.646;-9.154;2022-12-18T11:07:51;9.50;;;3.80;;
4638;SDS011;2332;38.646;-9.154;2022-12-18T11:10:19;7.40;;;3.90;;
4638;SDS011;2332;38.646;-9.154;2022-12-18T11:12:45;7.40;;;3.50;;
4638;SDS011;2332;38.646;-9.154;2022-12-18T11:15:20;7.47;;;3.83;;
4638;SDS011;2332;38.646;-9.154;2022-12-18T11:17:50;12.37;;;4.03;;
4638;SDS011;2332;38.646;-9.154;2022-12-18T11:23:10;6.07;;;3.93;;
4638;SDS011;2332;38.646;-9.154;2022-12-18T11:25:36;8.10;;;3.80;;
4638;SDS011;2332;38.646;-9.154;2022-12-18T11:28:03;8.10;;;3.80;;
4638;SDS011;2332;38.646;-9.154;2022-12-18T11:30:30;7.90;;;4.17;;
4638;SDS011;2332;38.646;-9.154;2022-12-18T11:32:56;5.93;;;3.60;;
4638;SDS011;2332;38.646;-9.154;2022-12-18T11:41:02;6.93;;;4.07;;
4638;SDS011;2332;38.646;-9.154;2022-12-18T11:43:34;13.30;;;6.17;;
4638;SDS011;2332;38.646;-9.154;2022-12-18T11:46:04;12.13;;;5.80;;
4638;SDS011;2332;38.646;-9.154;2022-12-18T11:48:36;14.63;;;6.67;;
4638;SDS011;2332;38.646;-9.154;2022-12-18T11:51:04;13.83;;;9.33;;
4638;SDS011;2332;38.646;-9.154;2022-12-18T11:53:30;18.13;;;8.10;;
4638;SDS011;2332;38.646;-9.154;2022-12-18T12:00:59;9.67;;;4.50;;
4638;SDS011;2332;38.646;-9.154;2022-12-18T12:06:58;14.10;;;5.47;;
4638;SDS011;2332;38.646;-9.154;2022-12-18T12:24:44;8.37;;;4.47;;
4638;SDS011;2332;38.646;-9.154;2022-12-18T12:29:42;11.53;;;3.30;;
4638;SDS011;2332;38.646;-9.154;2022-12-18T12:32:22;8.40;;;3.10;;
4638;SDS011;2332;38.646;-9.154;2022-12-18T12:37:43;7.80;;;2.83;;
4638;SDS011;2332;38.646;-9.154;2022-12-18T12:40:07;5.03;;;2.57;;
4638;SDS011;2332;38.646;-9.154;2022-12-18T12:42:38;9.83;;;3.20;;
4638;SDS011;2332;38.646;-9.154;2022-12-18T12:45:26;5.20;;;2.27;;
4638;SDS011;2332;38.646;-9.154;2022-12-18T12:47:52;5.63;;;2.07;;
4638;SDS011;2332;38.646;-9.154;2022-12-18T12:50:19;7.40;;;2.30;;
4638;SDS011;2332;38.646;-9.154;2022-12-18T12:52:46;13.07;;;2.80;;
4638;SDS011;2332;38.646;-9.154;2022-12-18T12:55:45;5.93;;;2.27;;
4638;SDS011;2332;38.646;-9.154;2022-12-18T12:58:11;5.57;;;2.20;;
4638;SDS011;2332;38.646;-9.154;2022-12-18T13:00:57;4.07;;;2.10;;
4638;SDS011;2332;38.646;-9.154;2022-12-18T13:08:28;5.67;;;2.30;;
4638;SDS011;2332;38.646;-9.154;2022-12-18T13:10:54;6.00;;;2.40;;
4638;SDS011;2332;38.646;-9.154;2022-12-18T13:13:50;7.00;;;2.80;;
4638;SDS011;2332;38.646;-9.154;2022-12-18T13:16:18;7.23;;;2.00;;
4638;SDS011;2332;38.646;-9.154;2022-12-18T13:18:54;10.53;;;2.40;;
4638;SDS011;2332;38.646;-9.154;2022-12-18T13:23:48;7.60;;;1.90;;
4638;SDS011;2332;38.646;-9.154;2022-12-18T13:31:12;7.77;;;2.13;;
4638;SDS011;2332;38.646;-9.154;2022-12-18T13:33:41;5.20;;;1.97;;
4638;SDS011;2332;38.646;-9.154;2022-12-18T13:36:23;6.40;;;2.60;;
4638;SDS011;2332;38.646;-9.154;2022-12-18T13:41:34;4.70;;;1.90;;
4638;SDS011;2332;38.646;-9.154;2022-12-18T13:44:13;6.77;;;2.03;;
4638;SDS011;2332;38.646;-9.154;2022-12-18T13:46:46;10.03;;;2.17;;
4638;SDS011;2332;38.646;-9.154;2022-12-18T13:51:39;6.67;;;2.07;;
4638;SDS011;2332;38.646;-9.154;2022-12-18T13:54:11;3.70;;;1.40;;
4638;SDS011;2332;38.646;-9.154;2022-12-18T13:56:42;5.63;;;2.50;;
4638;SDS011;2332;38.646;-9.154;2022-12-18T14:01:33;3.87;;;1.60;;
4638;SDS011;2332;38.646;-9.154;2022-12-18T14:04:21;7.10;;;2.10;;
4638;SDS011;2332;38.646;-9.154;2022-12-18T14:06:47;5.20;;;1.70;;
4638;SDS011;2332;38.646;-9.154;2022-12-18T14:09:15;3.77;;;2.00;;
4638;SDS011;2332;38.646;-9.154;2022-12-18T14:11:40;4.80;;;2.03;;
4638;SDS011;2332;38.646;-9.154;2022-12-18T14:14:13;7.27;;;2.63;;
4638;SDS011;2332;38.646;-9.154;2022-12-18T14:16:38;8.73;;;1.83;;
4638;SDS011;2332;38.646;-9.154;2022-12-18T14:19:08;5.10;;;2.50;;
4638;SDS011;2332;38.646;-9.154;2022-12-18T14:21:35;5.80;;;1.90;;
4638;SDS011;2332;38.646;-9.154;2022-12-18T14:26:33;5.40;;;2.20;;
4638;SDS011;2332;38.646;-9.154;2022-12-18T14:29:00;4.67;;;2.10;;
4638;SDS011;2332;38.646;-9.154;2022-12-18T14:31:29;5.97;;;1.77;;
4638;SDS011;2332;38.646;-9.154;2022-12-18T14:33:54;3.30;;;1.70;;
4638;SDS011;2332;38.646;-9.154;2022-12-18T14:36:24;5.17;;;2.13;;
4638;SDS011;2332;38.646;-9.154;2022-12-18T14:38:50;7.10;;;2.20;;
4638;SDS011;2332;38.646;-9.154;2022-12-18T14:41:16;2.30;;;2.03;;
4638;SDS011;2332;38.646;-9.154;2022-12-18T14:43:43;5.53;;;1.70;;
4638;SDS011;2332;38.646;-9.154;2022-12-18T14:48:52;6.50;;;2.33;;
4638;SDS011;2332;38.646;-9.154;2022-12-18T14:51:19;3.60;;;2.17;;
4638;SDS011;2332;38.646;-9.154;2022-12-18T14:53:55;4.40;;;2.17;;
4638;SDS011;2332;38.646;-9.154;2022-12-18T14:56:21;8.33;;;2.43;;
4638;SDS011;2332;38.646;-9.154;2022-12-18T14:58:54;3.70;;;1.73;;
4638;SDS011;2332;38.646;-9.154;2022-12-18T15:01:24;4.77;;;2.20;;
4638;SDS011;2332;38.646;-9.154;2022-12-18T15:03:50;5.60;;;2.10;;
4638;SDS011;2332;38.646;-9.154;2022-12-18T15:06:17;3.90;;;1.67;;
4638;SDS011;2332;38.646;-9.154;2022-12-18T15:08:43;5.77;;;1.90;;
4638;SDS011;2332;38.646;-9.154;2022-12-18T15:11:28;7.17;;;2.23;;
4638;SDS011;2332;38.646;-9.154;2022-12-18T15:13:53;5.63;;;2.70;;
4638;SDS011;2332;38.646;-9.154;2022-12-18T15:16:18;6.53;;;2.60;;
4638;SDS011;2332;38.646;-9.154;2022-12-18T15:18:44;5.13;;;2.10;;
4638;SDS011;2332;38.646;-9.154;2022-12-18T15:21:17;8.60;;;1.67;;
4638;SDS011;2332;38.646;-9.154;2022-12-18T15:26:08;7.30;;;2.77;;
4638;SDS011;2332;38.646;-9.154;2022-12-18T15:33:37;5.83;;;1.30;;
4638;SDS011;2332;38.646;-9.154;2022-12-18T15:36:04;5.20;;;1.90;;
4638;SDS011;2332;38.646;-9.154;2022-12-18T15:38:29;4.87;;;2.40;;
4638;SDS011;2332;38.646;-9.154;2022-12-18T15:40:55;4.83;;;1.63;;
4638;SDS011;2332;38.646;-9.154;2022-12-18T15:43:23;4.27;;;2.07;;
4638;SDS011;2332;38.646;-9.154;2022-12-18T15:48:31;7.30;;;2.10;;
4638;SDS011;2332;38.646;-9.154;2022-12-18T15:50:57;1.87;;;1.67;;
4638;SDS011;2332;38.646;-9.154;2022-12-18T15:53:24;2.50;;;1.60;;
4638;SDS011;2332;38.646;-9.154;2022-12-18T15:55:50;5.33;;;1.87;;
4638;SDS011;2332;38.646;-9.154;2022-12-18T15:58:34;11.80;;;2.20;;
4638;SDS011;2332;38.646;-9.154;2022-12-18T16:00:59;4.60;;;2.10;;
4638;SDS011;2332;38.646;-9.154;2022-12-18T16:03:25;2.07;;;1.87;;
4638;SDS011;2332;38.646;-9.154;2022-12-18T16:05:51;5.60;;;2.30;;
4638;SDS011;2332;38.646;-9.154;2022-12-18T16:08:16;4.23;;;2.10;;
4638;SDS011;2332;38.646;-9.154;2022-12-18T16:10:41;7.10;;;2.27;;
4638;SDS011;2332;38.646;-9.154;2022-12-18T16:13:10;5.93;;;1.90;;
4638;SDS011;2332;38.646;-9.154;2022-12-18T16:15:35;7.33;;;2.63;;
4638;SDS011;2332;38.646;-9.154;2022-12-18T16:18:01;9.03;;;1.80;;
4638;SDS011;2332;38.646;-9.154;2022-12-18T16:20:26;4.43;;;1.80;;
4638;SDS011;2332;38.646;-9.154;2022-12-18T16:22:52;3.27;;;2.10;;
4638;SDS011;2332;38.646;-9.154;2022-12-18T16:25:21;3.83;;;2.17;;
4638;SDS011;2332;38.646;-9.154;2022-12-18T16:27:47;8.77;;;2.60;;
4638;SDS011;2332;38.646;-9.154;2022-12-18T16:30:13;3.57;;;1.93;;
4638;SDS011;2332;38.646;-9.154;2022-12-18T16:32:38;10.67;;;2.60;;
4638;SDS011;2332;38.646;-9.154;2022-12-18T16:35:04;4.00;;;1.70;;
4638;SDS011;2332;38.646;-9.154;2022-12-18T16:37:29;3.90;;;1.83;;
4638;SDS011;2332;38.646;-9.154;2022-12-18T16:39:55;2.20;;;2.00;;
4638;SDS011;2332;38.646;-9.154;2022-12-18T16:42:20;7.10;;;2.07;;
4638;SDS011;2332;38.646;-9.154;2022-12-18T16:44:46;8.60;;;2.13;;